Time;durP1;ratioP1;P1;durP2;ratioP2;P2;SDS_P1;SDS_P2;PMS_P1;PMS_P2;Temp;Humidity;BMP_temperature;BMP_pressure;BME280_temperature;BME280_humidity;BME280_pressure;Samples;Min_cycle;Max_cycle;Signal;HPM_P1;HPM_P2
2022/11/26 00:00:56;;;;;;;18.37;7.87;;;6.60;99.90;;;;;;4819083;29;20232;-62
2022/11/26 00:03:24;;;;;;;16.03;8.27;;;6.70;99.90;;;;;;4822562;29;20974;-60
2022/11/26 00:05:56;;;;;;;19.20;8.23;;;6.60;99.90;;;;;;4821925;29;20235;-62
2022/11/26 00:08:29;;;;;;;20.40;8.53;;;6.70;99.90;;;;;;4822294;29;20235;-62
2022/11/26 00:10:57;;;;;;;19.33;7.93;;;6.60;99.90;;;;;;4822157;29;20232;-62
2022/11/26 00:13:28;;;;;;;20.90;8.10;;;6.50;99.90;;;;;;4821924;29;20232;-62
2022/11/26 00:15:57;;;;;;;21.07;8.70;;;6.50;99.90;;;;;;4826342;29;20491;-61
2022/11/26 00:18:25;;;;;;;18.37;7.77;;;6.40;99.90;;;;;;4843866;29;20323;-62
2022/11/26 00:20:55;;;;;;;21.97;9.77;;;6.50;99.90;;;;;;4843629;29;20232;-62
2022/11/26 00:23:26;;;;;;;23.53;8.57;;;6.50;99.90;;;;;;4844783;29;20239;-62
2022/11/26 00:25:56;;;;;;;19.50;8.80;;;6.40;99.90;;;;;;4842595;29;20593;-62
2022/11/26 00:28:28;;;;;;;18.57;8.47;;;6.40;99.90;;;;;;4844233;29;20235;-62
2022/11/26 00:30:59;;;;;;;17.60;8.27;;;6.40;99.90;;;;;;4844175;29;20243;-62
2022/11/26 00:33:28;;;;;;;15.53;8.00;;;6.40;99.90;;;;;;4844661;29;20235;-62
2022/11/26 00:35:58;;;;;;;20.03;9.03;;;6.30;99.90;;;;;;4843071;29;20492;-62
2022/11/26 00:38:26;;;;;;;18.53;8.17;;;6.30;99.90;;;;;;4844483;29;20484;-62
2022/11/26 00:40:54;;;;;;;19.80;8.13;;;6.30;99.90;;;;;;4844578;29;20254;-62
2022/11/26 00:43:22;;;;;;;14.90;7.70;;;6.20;99.90;;;;;;4844329;29;20282;-62
2022/11/26 00:45:52;;;;;;;20.43;8.43;;;6.20;99.90;;;;;;4844489;29;20235;-62
2022/11/26 00:48:20;;;;;;;18.37;8.67;;;6.20;99.90;;;;;;4844260;29;20231;-62
2022/11/26 00:50:50;;;;;;;17.67;9.20;;;6.20;99.90;;;;;;4843665;29;20280;-62
2022/11/26 00:53:22;;;;;;;20.33;7.83;;;6.20;99.90;;;;;;4844076;29;20477;-62
2022/11/26 00:55:50;;;;;;;22.10;8.70;;;6.40;99.90;;;;;;4843900;29;20687;-62
2022/11/26 00:58:24;;;;;;;20.03;9.27;;;6.30;99.90;;;;;;4844278;29;20272;-62
2022/11/26 01:00:55;;;;;;;20.60;10.00;;;6.40;99.90;;;;;;4843506;29;20472;-62
2022/11/26 01:03:23;;;;;;;18.97;9.20;;;6.30;99.90;;;;;;4844273;29;20326;-62
2022/11/26 01:05:53;;;;;;;20.20;8.77;;;6.20;99.90;;;;;;4843965;29;20745;-62
2022/11/26 01:08:28;;;;;;;17.40;9.53;;;6.20;99.90;;;;;;4843815;29;20238;-62
2022/11/26 01:10:56;;;;;;;18.03;8.23;;;6.20;99.90;;;;;;4844093;29;20283;-62
2022/11/26 01:13:25;;;;;;;23.03;10.40;;;6.30;99.90;;;;;;4843612;29;20283;-62
2022/11/26 01:15:56;;;;;;;19.00;9.40;;;6.30;99.90;;;;;;4844128;29;20655;-63
2022/11/26 01:18:24;;;;;;;20.47;10.03;;;6.30;99.90;;;;;;4844041;29;20235;-62
2022/11/26 01:20:52;;;;;;;15.93;9.47;;;6.40;99.90;;;;;;4842867;29;20496;-63
2022/11/26 01:23:21;;;;;;;17.60;8.53;;;6.20;99.90;;;;;;4843641;29;20692;-62
2022/11/26 01:25:49;;;;;;;24.33;10.50;;;6.20;99.90;;;;;;4844552;29;20676;-62
2022/11/26 01:28:19;;;;;;;13.87;8.37;;;6.20;99.90;;;;;;4843736;29;20242;-62
2022/11/26 01:30:47;;;;;;;23.67;10.73;;;6.20;99.90;;;;;;4843234;29;20243;-63
2022/11/26 01:33:16;;;;;;;17.77;9.77;;;6.10;99.90;;;;;;4843809;29;20231;-63
2022/11/26 01:35:44;;;;;;;17.53;9.47;;;6.10;99.90;;;;;;4843350;29;20239;-63
2022/11/26 01:38:14;;;;;;;18.00;9.70;;;6.20;99.90;;;;;;4843630;29;20743;-62
2022/11/26 01:40:54;;;;;;;22.00;9.97;;;6.20;99.90;;;;;;4843148;29;20235;-62
2022/11/26 01:43:26;;;;;;;16.60;9.37;;;6.30;99.90;;;;;;4843197;29;20456;-63
2022/11/26 01:45:56;;;;;;;17.00;9.83;;;6.30;99.90;;;;;;4843506;29;20262;-62
2022/11/26 01:48:29;;;;;;;18.03;9.20;;;6.30;99.90;;;;;;4843387;29;20480;-62
2022/11/26 01:51:01;;;;;;;20.43;9.27;;;6.20;99.90;;;;;;4843137;29;20700;-62
2022/11/26 01:53:43;;;;;;;18.77;9.67;;;6.30;99.90;;;;;;4843105;29;20476;-62
2022/11/26 01:56:18;;;;;;;17.20;10.07;;;6.30;99.90;;;;;;4844122;29;20239;-63
2022/11/26 01:58:51;;;;;;;14.87;9.07;;;6.30;99.90;;;;;;4842787;29;20235;-63
2022/11/26 02:01:19;;;;;;;17.70;9.33;;;6.30;99.90;;;;;;4842487;29;21013;-63
2022/11/26 02:03:58;;;;;;;21.00;8.80;;;6.30;99.90;;;;;;4843042;29;20970;-63
2022/11/26 02:06:31;;;;;;;19.37;9.40;;;6.20;99.90;;;;;;4842736;29;20235;-62
2022/11/26 02:09:01;;;;;;;14.07;9.27;;;6.20;99.90;;;;;;4843173;29;20973;-63
2022/11/26 02:11:29;;;;;;;17.40;8.97;;;6.20;99.90;;;;;;4842617;29;20227;-62
2022/11/26 02:14:02;;;;;;;17.93;9.60;;;6.10;99.90;;;;;;4842808;29;20250;-62
2022/11/26 02:16:47;;;;;;;17.77;9.03;;;6.00;99.90;;;;;;4842500;29;20242;-62
2022/11/26 02:19:41;;;;;;;15.20;8.33;;;6.10;99.90;;;;;;4842711;29;20645;-62
2022/11/26 02:22:25;;;;;;;18.17;10.17;;;6.10;99.90;;;;;;4840135;29;20279;-62
2022/11/26 02:24:59;;;;;;;14.47;8.97;;;6.10;99.90;;;;;;4843079;29;20255;-62
2022/11/26 02:27:49;;;;;;;18.27;9.90;;;6.10;99.90;;;;;;4842080;29;20242;-62
2022/11/26 02:30:18;;;;;;;18.77;10.00;;;6.00;99.90;;;;;;4842112;29;20223;-63
2022/11/26 02:32:58;;;;;;;17.70;9.60;;;5.90;99.90;;;;;;4842405;29;20235;-62
2022/11/26 02:35:32;;;;;;;17.13;9.73;;;5.90;99.90;;;;;;4842344;29;20239;-62
2022/11/26 02:38:05;;;;;;;19.47;9.73;;;5.90;99.90;;;;;;4842711;29;20497;-63
2022/11/26 02:40:33;;;;;;;16.03;9.93;;;5.90;99.90;;;;;;4842369;29;20238;-62
2022/11/26 02:43:01;;;;;;;16.33;10.37;;;5.80;99.90;;;;;;4842228;29;20315;-63
2022/11/26 02:45:34;;;;;;;15.60;9.27;;;5.80;99.90;;;;;;4842403;29;20739;-62
2022/11/26 02:48:05;;;;;;;19.70;9.53;;;5.80;99.90;;;;;;4842520;29;20536;-62
2022/11/26 02:50:38;;;;;;;17.30;11.13;;;5.80;99.90;;;;;;4841766;29;20474;-63
2022/11/26 02:53:08;;;;;;;13.57;10.33;;;5.70;99.90;;;;;;4842076;29;20487;-63
2022/11/26 02:55:42;;;;;;;15.83;9.57;;;5.70;99.90;;;;;;4841778;29;20238;-62
2022/11/26 02:58:10;;;;;;;15.17;9.67;;;5.80;99.90;;;;;;4842102;29;20505;-63
2022/11/26 03:00:42;;;;;;;17.10;9.50;;;5.80;99.90;;;;;;4841712;29;20484;-63
2022/11/26 03:03:21;;;;;;;15.50;10.23;;;5.80;99.90;;;;;;4834612;29;20463;-63
2022/11/26 03:05:53;;;;;;;17.27;10.20;;;5.70;99.90;;;;;;4841770;29;20504;-63
2022/11/26 03:08:21;;;;;;;13.33;9.50;;;5.70;99.90;;;;;;4842021;29;20232;-63
2022/11/26 03:10:49;;;;;;;15.07;9.80;;;5.60;99.90;;;;;;4842199;29;21062;-63
2022/11/26 03:13:18;;;;;;;16.03;10.27;;;5.60;99.90;;;;;;4842314;29;20490;-63
2022/11/26 03:15:47;;;;;;;14.47;10.20;;;5.50;99.90;;;;;;4841804;29;20835;-63
2022/11/26 03:18:15;;;;;;;15.53;10.57;;;5.60;99.90;;;;;;4841848;29;20483;-62
2022/11/26 03:20:43;;;;;;;16.13;10.53;;;5.50;99.90;;;;;;4841683;29;20547;-63
2022/11/26 03:23:11;;;;;;;14.70;10.10;;;5.50;99.90;;;;;;4834903;29;20870;-62
2022/11/26 03:25:40;;;;;;;17.47;10.30;;;5.50;99.90;;;;;;4842839;29;20476;-63
2022/11/26 03:28:08;;;;;;;13.17;10.50;;;5.50;99.90;;;;;;4841656;29;20483;-63
2022/11/26 03:30:36;;;;;;;15.87;10.43;;;5.50;99.90;;;;;;4841345;29;20575;-62
2022/11/26 03:33:05;;;;;;;14.00;10.77;;;5.50;99.90;;;;;;4841848;29;20476;-62
2022/11/26 03:35:33;;;;;;;14.33;9.43;;;5.40;99.90;;;;;;4843320;29;20486;-63
2022/11/26 03:38:01;;;;;;;16.17;10.50;;;5.50;99.90;;;;;;4845291;29;20476;-63
2022/11/26 03:40:29;;;;;;;13.47;9.53;;;5.50;99.90;;;;;;4845233;29;20581;-62
2022/11/26 03:42:57;;;;;;;12.57;9.67;;;5.50;99.90;;;;;;4845253;29;20498;-63
2022/11/26 03:45:26;;;;;;;13.50;9.80;;;5.50;99.90;;;;;;4845603;29;20983;-63
2022/11/26 03:47:54;;;;;;;13.63;10.37;;;5.50;99.90;;;;;;4845657;29;20530;-63
2022/11/26 03:50:23;;;;;;;13.63;10.77;;;5.40;99.90;;;;;;4845267;29;20491;-63
2022/11/26 03:52:52;;;;;;;13.97;10.70;;;5.40;99.90;;;;;;4845359;29;20837;-63
2022/11/26 03:55:20;;;;;;;13.07;10.40;;;5.40;99.90;;;;;;4845281;29;20539;-62
2022/11/26 03:57:48;;;;;;;16.47;11.23;;;5.40;99.90;;;;;;4844825;29;20486;-63
2022/11/26 04:00:17;;;;;;;15.00;11.03;;;5.40;99.90;;;;;;4844583;29;20480;-62
2022/11/26 04:02:45;;;;;;;14.70;10.83;;;5.40;99.90;;;;;;4845219;29;20490;-62
2022/11/26 04:05:13;;;;;;;14.30;10.47;;;5.50;99.90;;;;;;4845276;29;20479;-63
2022/11/26 04:07:42;;;;;;;17.30;11.20;;;5.50;99.90;;;;;;4845029;29;20523;-63
2022/11/26 04:10:11;;;;;;;17.47;11.47;;;5.50;99.90;;;;;;4844958;29;20483;-63
2022/11/26 04:12:39;;;;;;;16.07;10.30;;;5.50;99.90;;;;;;4844985;29;20825;-63
2022/11/26 04:15:09;;;;;;;15.50;10.93;;;5.50;99.90;;;;;;4845032;29;20486;-63
2022/11/26 04:17:37;;;;;;;14.30;10.27;;;5.50;99.90;;;;;;4844644;29;20485;-63
2022/11/26 04:20:06;;;;;;;14.30;11.53;;;5.60;99.90;;;;;;4844745;29;20238;-63
2022/11/26 04:22:34;;;;;;;12.67;10.57;;;5.60;99.90;;;;;;4844495;29;20510;-62
2022/11/26 04:25:05;;;;;;;13.93;10.37;;;5.50;99.90;;;;;;4844784;29;20479;-63
2022/11/26 04:27:33;;;;;;;12.93;10.47;;;5.50;99.90;;;;;;4844655;29;20976;-62
2022/11/26 04:30:01;;;;;;;12.03;10.40;;;5.50;99.90;;;;;;4844917;29;20483;-63
2022/11/26 04:32:29;;;;;;;14.95;13.35;;;5.50;99.90;;;;;;4842845;29;20454;-62
2022/11/26 04:34:57;;;;;;;12.27;10.90;;;5.50;99.90;;;;;;4844427;29;20246;-63
2022/11/26 04:37:25;;;;;;;12.43;10.53;;;5.50;99.90;;;;;;4844354;29;20231;-63
2022/11/26 04:39:53;;;;;;;13.37;10.93;;;5.50;99.90;;;;;;4844533;29;20469;-62
2022/11/26 04:42:22;;;;;;;12.80;10.27;;;5.50;99.90;;;;;;4844553;29;20504;-63
2022/11/26 04:44:50;;;;;;;12.57;10.13;;;5.50;99.90;;;;;;4844618;29;20477;-62
2022/11/26 04:47:18;;;;;;;12.37;9.80;;;5.50;99.90;;;;;;4843864;29;20480;-63
2022/11/26 04:49:46;;;;;;;11.57;10.33;;;5.40;99.90;;;;;;4844005;29;20486;-62
2022/11/26 04:52:14;;;;;;;12.10;9.53;;;5.40;99.90;;;;;;4844115;29;20543;-62
2022/11/26 04:54:42;;;;;;;13.90;10.60;;;5.40;99.90;;;;;;4844039;29;20475;-62
2022/11/26 04:57:10;;;;;;;13.93;10.73;;;5.40;99.90;;;;;;4844199;29;20980;-62
2022/11/26 04:59:40;;;;;;;13.20;11.00;;;5.40;99.90;;;;;;4844259;29;20483;-62
2022/11/26 05:02:08;;;;;;;13.90;10.87;;;5.40;99.90;;;;;;4843642;29;20863;-62
2022/11/26 05:04:36;;;;;;;13.57;11.40;;;5.50;99.90;;;;;;4844159;29;20486;-62
2022/11/26 05:07:05;;;;;;;13.47;10.33;;;5.40;99.90;;;;;;4843958;29;20476;-62
2022/11/26 05:09:33;;;;;;;14.23;11.17;;;5.40;99.90;;;;;;4843982;29;20482;-62
2022/11/26 05:12:01;;;;;;;13.47;10.27;;;5.40;99.90;;;;;;4844163;29;20595;-62
2022/11/26 05:14:29;;;;;;;14.40;11.03;;;5.50;99.90;;;;;;4842922;29;21017;-62
2022/11/26 05:16:58;;;;;;;13.83;11.07;;;5.40;99.90;;;;;;4843518;29;20480;-62
2022/11/26 05:19:27;;;;;;;13.80;10.90;;;5.50;99.90;;;;;;4843481;29;20480;-60
2022/11/26 05:21:55;;;;;;;15.33;11.47;;;5.40;99.90;;;;;;4843486;29;20238;-62
2022/11/26 05:24:23;;;;;;;17.67;11.37;;;5.40;99.90;;;;;;4843677;29;20471;-62
2022/11/26 05:26:51;;;;;;;13.27;10.33;;;5.40;99.90;;;;;;4843432;29;20239;-63
2022/11/26 05:29:24;;;;;;;14.47;11.87;;;5.50;99.90;;;;;;4843864;29;20238;-62
2022/11/26 05:31:53;;;;;;;16.10;11.03;;;5.40;99.90;;;;;;4843281;29;20892;-62
2022/11/26 05:34:22;;;;;;;14.80;10.90;;;5.50;99.90;;;;;;4843440;29;20644;-62
2022/11/26 05:36:50;;;;;;;15.33;11.47;;;5.50;99.90;;;;;;4843644;29;20499;-62
2022/11/26 05:39:19;;;;;;;14.27;11.07;;;5.50;99.90;;;;;;4843081;29;20471;-62
2022/11/26 05:41:47;;;;;;;13.97;12.10;;;5.60;99.90;;;;;;4843384;29;20723;-62
2022/11/26 05:44:15;;;;;;;16.93;11.83;;;5.50;99.90;;;;;;4843158;29;20486;-63
2022/11/26 05:46:43;;;;;;;17.70;12.77;;;5.50;99.90;;;;;;4843125;29;20520;-62
2022/11/26 05:49:11;;;;;;;17.67;13.53;;;5.50;99.90;;;;;;4843184;29;20464;-62
2022/11/26 05:51:41;;;;;;;15.63;13.40;;;5.40;99.90;;;;;;4843148;29;20484;-62
2022/11/26 05:54:12;;;;;;;22.53;13.47;;;5.40;99.90;;;;;;4827373;29;20480;-62
2022/11/26 05:56:40;;;;;;;23.13;14.03;;;5.30;99.90;;;;;;4843824;29;20227;-62
2022/11/26 05:59:09;;;;;;;17.90;14.20;;;5.30;99.90;;;;;;4842115;29;20593;-62
2022/11/26 06:01:37;;;;;;;17.00;13.80;;;5.30;99.90;;;;;;4842262;29;20549;-62
2022/11/26 06:04:06;;;;;;;15.37;13.33;;;5.40;99.90;;;;;;4843264;29;20490;-63
2022/11/26 06:06:34;;;;;;;18.13;14.33;;;5.40;99.90;;;;;;4842541;29;20510;-62
2022/11/26 06:09:04;;;;;;;19.07;14.50;;;5.40;99.90;;;;;;4843234;29;21053;-62
2022/11/26 06:11:32;;;;;;;16.90;13.53;;;5.40;99.90;;;;;;4843299;29;20535;-62
2022/11/26 06:14:00;;;;;;;18.00;13.17;;;5.30;99.90;;;;;;4842824;29;20487;-62
2022/11/26 06:16:28;;;;;;;16.73;12.83;;;5.30;99.90;;;;;;4842624;29;20232;-62
2022/11/26 06:18:57;;;;;;;15.03;12.53;;;5.30;99.90;;;;;;4837246;29;20477;-62
2022/11/26 06:21:25;;;;;;;16.87;13.60;;;5.30;99.90;;;;;;4840110;29;20607;-63
2022/11/26 06:23:53;;;;;;;17.20;13.03;;;5.40;99.90;;;;;;4834877;29;20819;-62
2022/11/26 06:26:28;;;;;;;18.07;13.57;;;5.40;99.90;;;;;;4843071;29;20239;-62
2022/11/26 06:28:56;;;;;;;16.63;13.67;;;5.30;99.90;;;;;;4842377;29;20486;-62
2022/11/26 06:31:24;;;;;;;16.53;13.50;;;5.30;99.90;;;;;;4842121;29;20502;-62
2022/11/26 06:33:54;;;;;;;18.50;13.43;;;5.30;99.90;;;;;;4842081;29;20540;-62
2022/11/26 06:36:22;;;;;;;16.37;12.60;;;5.30;99.90;;;;;;4834333;29;20476;-62
2022/11/26 06:38:50;;;;;;;17.50;13.07;;;5.30;99.90;;;;;;4832327;29;20468;-62
2022/11/26 06:41:18;;;;;;;15.20;13.37;;;5.40;99.90;;;;;;4833768;29;20305;-62
2022/11/26 06:43:48;;;;;;;18.47;14.23;;;5.40;99.90;;;;;;4831470;29;20254;-61
2022/11/26 06:46:16;;;;;;;19.80;14.03;;;5.40;99.90;;;;;;4832595;29;20491;-62
2022/11/26 06:48:44;;;;;;;18.93;13.67;;;5.40;99.90;;;;;;4831752;29;20475;-63
2022/11/26 06:51:14;;;;;;;16.50;14.37;;;5.40;99.90;;;;;;4835276;29;20483;-62
2022/11/26 06:53:42;;;;;;;20.70;15.67;;;5.40;99.90;;;;;;4833765;29;20968;-63
2022/11/26 06:56:13;;;;;;;23.23;17.33;;;5.40;99.90;;;;;;4836571;29;20476;-62
2022/11/26 06:58:48;;;;;;;22.77;15.83;;;5.40;99.90;;;;;;4836087;29;20543;-62
2022/11/26 07:01:18;;;;;;;20.67;15.00;;;5.40;99.90;;;;;;4841655;29;20578;-63
2022/11/26 07:03:46;;;;;;;19.80;14.63;;;5.40;99.90;;;;;;4837709;29;20243;-62
2022/11/26 07:06:19;;;;;;;20.97;15.23;;;5.40;99.90;;;;;;4833019;29;20473;-62
2022/11/26 07:08:47;;;;;;;18.50;14.10;;;5.40;99.90;;;;;;4832015;29;20246;-63
2022/11/26 07:11:16;;;;;;;20.27;13.37;;;5.40;99.90;;;;;;4831580;29;20231;-63
2022/11/26 07:13:44;;;;;;;15.50;13.47;;;5.40;99.90;;;;;;4830549;29;20479;-62
2022/11/26 07:16:14;;;;;;;18.23;13.77;;;5.40;99.90;;;;;;4831557;29;20235;-62
2022/11/26 07:18:42;;;;;;;20.80;14.43;;;5.40;99.90;;;;;;4832398;29;20475;-63
2022/11/26 07:21:12;;;;;;;16.57;12.73;;;5.30;99.90;;;;;;4835923;29;20706;-63
2022/11/26 07:23:41;;;;;;;16.53;13.00;;;5.30;99.90;;;;;;4833420;29;20503;-63
2022/11/26 07:26:10;;;;;;;16.70;12.77;;;5.30;99.90;;;;;;4835263;29;20240;-63
2022/11/26 07:28:39;;;;;;;16.63;13.07;;;5.40;99.90;;;;;;4831556;29;20483;-63
2022/11/26 07:31:09;;;;;;;14.80;12.40;;;5.40;99.90;;;;;;4827052;29;21008;-62
2022/11/26 07:33:45;;;;;;;24.07;13.20;;;5.40;99.90;;;;;;4833641;29;20222;-62
2022/11/26 07:36:16;;;;;;;16.57;12.93;;;5.30;99.90;;;;;;4838201;29;20691;-63
2022/11/26 07:38:45;;;;;;;18.83;14.13;;;5.30;99.90;;;;;;4840480;29;20484;-63
2022/11/26 07:41:15;;;;;;;17.47;12.63;;;5.30;99.90;;;;;;4840825;29;20498;-62
2022/11/26 07:43:44;;;;;;;16.30;13.70;;;5.30;99.90;;;;;;4835188;29;20600;-63
2022/11/26 07:46:15;;;;;;;24.50;13.10;;;5.30;99.90;;;;;;4837643;29;20995;-62
2022/11/26 07:48:45;;;;;;;16.87;13.17;;;5.30;99.90;;;;;;4832409;29;20487;-63
2022/11/26 07:51:19;;;;;;;17.73;13.37;;;5.30;99.90;;;;;;4841505;29;20470;-63
2022/11/26 07:53:48;;;;;;;16.20;13.33;;;5.40;99.90;;;;;;4840948;29;20896;-63
2022/11/26 07:56:17;;;;;;;18.40;13.40;;;5.40;99.90;;;;;;4841687;29;20486;-62
2022/11/26 07:58:45;;;;;;;16.93;14.27;;;5.30;99.90;;;;;;4841649;29;20491;-63
2022/11/26 08:01:15;;;;;;;17.80;14.07;;;5.40;99.90;;;;;;4841200;29;20551;-63
2022/11/26 08:03:47;;;;;;;16.97;14.13;;;5.30;99.90;;;;;;4840431;29;20496;-63
2022/11/26 08:06:18;;;;;;;17.07;14.33;;;5.40;99.90;;;;;;4841057;29;20468;-63
2022/11/26 08:08:46;;;;;;;17.93;14.03;;;5.40;99.90;;;;;;4841353;29;20525;-62
2022/11/26 08:11:16;;;;;;;16.90;14.40;;;5.40;99.90;;;;;;4832726;29;20575;-63
2022/11/26 08:13:45;;;;;;;17.67;13.93;;;5.40;99.90;;;;;;4823190;29;20238;-63
2022/11/26 08:16:13;;;;;;;20.00;13.57;;;5.40;99.90;;;;;;4823434;29;20996;-62
2022/11/26 08:18:42;;;;;;;22.33;15.63;;;5.50;99.90;;;;;;4830118;29;20246;-63
2022/11/26 08:21:11;;;;;;;25.53;16.03;;;5.50;99.90;;;;;;4830769;29;20288;-62
2022/11/26 08:23:39;;;;;;;21.63;15.73;;;5.50;99.90;;;;;;4830093;29;20523;-63
2022/11/26 08:26:08;;;;;;;17.93;16.00;;;5.50;99.90;;;;;;4829473;29;20235;-61
2022/11/26 08:28:56;;;;;;;18.30;14.70;;;5.50;99.90;;;;;;4831202;29;20238;-60
2022/11/26 08:31:26;;;;;;;18.87;15.00;;;5.50;99.90;;;;;;4829729;29;20871;-63
2022/11/26 08:33:57;;;;;;;18.57;14.33;;;5.50;99.90;;;;;;4831036;29;20468;-63
2022/11/26 08:36:28;;;;;;;26.17;15.50;;;5.50;99.90;;;;;;4832016;29;20703;-61
2022/11/26 08:38:56;;;;;;;18.43;14.70;;;5.50;99.90;;;;;;4827839;29;21154;-61
2022/11/26 08:41:24;;;;;;;20.53;15.03;;;5.50;99.90;;;;;;4832725;29;20481;-63
2022/11/26 08:43:52;;;;;;;19.73;14.37;;;5.50;99.90;;;;;;4828689;29;20252;-62
2022/11/26 08:46:36;;;;;;;20.50;15.30;;;5.60;99.90;;;;;;4831793;29;20251;-62
2022/11/26 08:49:05;;;;;;;21.07;15.80;;;5.60;99.90;;;;;;4827915;29;20497;-62
2022/11/26 08:51:35;;;;;;;21.17;15.83;;;5.60;99.90;;;;;;4826754;29;20474;-61
2022/11/26 08:54:03;;;;;;;24.80;19.03;;;5.60;99.90;;;;;;4826686;29;21046;-62
2022/11/26 08:56:31;;;;;;;22.47;16.80;;;5.60;99.90;;;;;;4825878;29;20881;-60
2022/11/26 08:58:59;;;;;;;29.83;16.27;;;5.60;99.90;;;;;;4825817;29;20242;-62
2022/11/26 09:01:31;;;;;;;22.47;18.27;;;5.60;99.90;;;;;;4829493;29;20247;-62
2022/11/26 09:04:01;;;;;;;23.33;18.33;;;5.70;99.90;;;;;;4824525;29;21317;-62
2022/11/26 09:06:31;;;;;;;26.77;18.03;;;5.70;99.90;;;;;;4826215;29;20730;-61
2022/11/26 09:09:13;;;;;;;22.43;18.30;;;5.80;99.90;;;;;;4825631;29;20925;-62
2022/11/26 09:11:45;;;;;;;22.87;17.17;;;5.80;99.90;;;;;;4826644;29;20315;-62
2022/11/26 09:14:16;;;;;;;25.23;18.97;;;5.80;99.90;;;;;;4826831;29;20315;-62
2022/11/26 09:16:44;;;;;;;26.83;19.17;;;5.80;99.90;;;;;;4833491;29;20235;-62
2022/11/26 09:19:14;;;;;;;25.03;20.50;;;5.80;99.90;;;;;;4827226;29;20224;-62
2022/11/26 09:21:42;;;;;;;22.43;18.20;;;5.90;99.90;;;;;;4828465;29;20476;-62
2022/11/26 09:24:12;;;;;;;23.07;17.33;;;5.80;99.90;;;;;;4838853;29;20547;-63
2022/11/26 09:26:41;;;;;;;23.07;17.53;;;5.80;99.90;;;;;;4842725;29;20468;-63
2022/11/26 09:29:13;;;;;;;23.30;16.80;;;5.90;99.90;;;;;;4837588;29;20471;-62
2022/11/26 09:31:41;;;;;;;28.40;20.90;;;5.80;99.90;;;;;;4841362;29;20481;-63
2022/11/26 09:34:29;;;;;;;27.60;22.10;;;5.90;99.90;;;;;;4835386;29;20472;-63
2022/11/26 09:36:57;;;;;;;27.50;17.33;;;5.80;99.90;;;;;;4839935;29;20688;-62
2022/11/26 09:39:27;;;;;;;23.13;17.63;;;5.90;99.90;;;;;;4840487;29;20227;-62
2022/11/26 09:42:04;;;;;;;31.80;18.00;;;5.90;99.90;;;;;;4841001;29;20719;-62
2022/11/26 09:44:57;;;;;;;22.67;17.30;;;5.80;99.90;;;;;;4839966;29;20877;-63
2022/11/26 09:47:27;;;;;;;20.73;15.57;;;5.90;99.90;;;;;;4835672;29;20467;-61
2022/11/26 09:50:03;;;;;;;22.37;15.40;;;5.90;99.90;;;;;;4839524;29;20248;-63
2022/11/26 09:52:37;;;;;;;20.43;16.70;;;5.90;99.90;;;;;;4840904;29;20471;-63
2022/11/26 09:55:15;;;;;;;22.47;16.83;;;5.90;99.90;;;;;;4841179;29;20464;-63
2022/11/26 09:57:46;;;;;;;25.83;18.30;;;5.90;99.90;;;;;;4839125;29;20983;-63
2022/11/26 10:00:24;;;;;;;28.70;17.60;;;6.00;99.90;;;;;;4836543;29;20485;-63
2022/11/26 10:02:54;;;;;;;25.20;18.17;;;6.00;99.90;;;;;;4839585;29;20238;-63
2022/11/26 10:05:30;;;;;;;31.70;19.57;;;6.00;99.90;;;;;;4825270;29;20507;-63
2022/11/26 10:08:07;;;;;;;41.00;20.10;;;6.00;99.90;;;;;;4820541;29;20271;-63
2022/11/26 10:10:52;;;;;;;39.30;21.33;;;6.10;99.90;;;;;;4821312;29;20235;-60
2022/11/26 10:13:28;;;;;;;41.43;19.60;;;6.10;99.90;;;;;;4821537;29;20612;-63
2022/11/26 10:16:04;;;;;;;32.70;20.37;;;6.10;99.90;;;;;;4820314;29;20713;-63
2022/11/26 10:18:40;;;;;;;37.03;20.33;;;6.20;99.90;;;;;;4820527;29;20460;-62
2022/11/26 10:21:17;;;;;;;31.10;18.17;;;6.20;99.90;;;;;;4821074;29;20234;-63
2022/11/26 10:24:14;;;;;;;30.20;19.57;;;6.20;99.90;;;;;;4821360;29;20243;-63
2022/11/26 10:26:43;;;;;;;26.73;17.27;;;6.20;99.90;;;;;;4823532;29;20235;-63
2022/11/26 10:29:23;;;;;;;25.53;16.63;;;6.20;99.90;;;;;;4821275;29;20244;-63
2022/11/26 10:31:56;;;;;;;27.00;18.87;;;6.20;99.90;;;;;;4818980;29;20239;-62
2022/11/26 10:34:30;;;;;;;24.17;17.13;;;6.30;99.90;;;;;;4819184;29;20224;-63
2022/11/26 10:37:06;;;;;;;26.07;16.93;;;6.30;99.90;;;;;;4819987;29;20574;-62
2022/11/26 10:39:34;;;;;;;30.40;18.23;;;6.30;99.90;;;;;;4820620;29;20773;-63
2022/11/26 10:42:13;;;;;;;25.27;16.97;;;6.30;99.90;;;;;;4819674;29;20235;-60
2022/11/26 10:44:41;;;;;;;32.53;18.63;;;6.30;99.90;;;;;;4819334;29;20312;-63
2022/11/26 10:47:23;;;;;;;27.27;17.87;;;6.30;99.90;;;;;;4819653;29;20291;-63
2022/11/26 10:49:52;;;;;;;29.50;19.50;;;6.30;99.90;;;;;;4819544;29;20566;-61
2022/11/26 10:52:24;;;;;;;33.33;20.50;;;6.40;99.90;;;;;;4820458;29;20790;-63
2022/11/26 10:55:16;;;;;;;35.17;21.17;;;6.40;99.90;;;;;;4821743;29;20251;-63
2022/11/26 10:57:50;;;;;;;28.57;19.17;;;6.40;99.90;;;;;;4820527;29;20243;-63
2022/11/26 11:00:34;;;;;;;30.03;19.00;;;6.40;99.90;;;;;;4819284;29;20235;-63
2022/11/26 11:03:03;;;;;;;28.93;17.00;;;6.30;99.90;;;;;;4819737;29;20234;-63
2022/11/26 11:05:33;;;;;;;31.27;19.73;;;6.40;99.90;;;;;;4819283;29;20236;-60
2022/11/26 11:08:01;;;;;;;27.27;19.23;;;6.40;99.90;;;;;;4819465;29;20231;-62
2022/11/26 11:10:29;;;;;;;30.90;19.73;;;6.30;99.90;;;;;;4820112;29;20323;-63
2022/11/26 11:13:11;;;;;;;31.90;19.80;;;6.30;99.90;;;;;;4819525;29;20228;-63
2022/11/26 11:15:40;;;;;;;34.50;20.13;;;6.30;99.90;;;;;;4818930;29;20239;-63
2022/11/26 11:18:18;;;;;;;32.20;19.80;;;6.40;99.90;;;;;;4819756;29;20739;-63
2022/11/26 11:20:54;;;;;;;35.43;19.20;;;6.40;99.90;;;;;;4819689;29;20696;-63
2022/11/26 11:23:23;;;;;;;35.43;20.80;;;6.40;99.90;;;;;;4820239;29;20487;-63
2022/11/26 11:26:17;;;;;;;40.53;22.23;;;6.40;99.90;;;;;;4821063;29;20243;-63
2022/11/26 11:28:49;;;;;;;37.67;21.40;;;6.50;99.90;;;;;;4818573;29;20304;-62
2022/11/26 11:31:20;;;;;;;37.57;21.07;;;6.50;99.90;;;;;;4818994;29;20236;-63
2022/11/26 11:33:49;;;;;;;39.00;21.87;;;6.50;99.90;;;;;;4820245;29;20774;-62
2022/11/26 11:36:28;;;;;;;38.27;20.30;;;6.50;99.90;;;;;;4819793;29;20232;-61
2022/11/26 11:38:58;;;;;;;42.17;23.43;;;6.60;99.90;;;;;;4818674;29;20235;-63
2022/11/26 11:41:30;;;;;;;43.50;23.40;;;6.60;99.90;;;;;;4824356;29;20254;-63
2022/11/26 11:44:04;;;;;;;43.37;24.70;;;6.70;99.90;;;;;;4837316;29;20999;-63
2022/11/26 11:47:07;;;;;;;44.33;24.33;;;6.80;99.90;;;;;;4841306;29;20246;-63
2022/11/26 11:49:50;;;;;;;38.33;22.33;;;6.70;99.90;;;;;;4836816;29;20234;-63
2022/11/26 11:52:28;;;;;;;41.47;23.30;;;6.70;99.90;;;;;;4838897;29;20638;-63
2022/11/26 11:55:04;;;;;;;39.87;23.40;;;6.80;99.90;;;;;;4839526;29;20223;-63
2022/11/26 11:57:44;;;;;;;40.27;23.90;;;6.90;99.90;;;;;;4831279;29;20483;-63
2022/11/26 12:00:17;;;;;;;43.20;23.90;;;6.90;99.90;;;;;;4826410;29;20731;-63
2022/11/26 12:03:22;;;;;;;44.10;27.13;;;6.90;99.90;;;;;;4825515;29;20480;-63
2022/11/26 12:06:15;;;;;;;43.87;26.30;;;6.90;99.90;;;;;;4803195;29;20232;-63
2022/11/26 12:08:55;;;;;;;43.60;23.47;;;7.00;99.90;;;;;;4824584;29;20245;-62
2022/11/26 12:11:34;;;;;;;45.13;25.70;;;7.00;99.90;;;;;;4822728;29;20239;-63
2022/11/26 12:14:07;;;;;;;47.57;25.50;;;7.00;99.90;;;;;;4823029;29;20266;-63
2022/11/26 12:16:46;;;;;;;45.50;24.50;;;7.10;99.90;;;;;;4822752;29;20235;-63
2022/11/26 12:19:25;;;;;;;42.80;23.90;;;7.00;99.90;;;;;;4821560;29;20248;-63
2022/11/26 12:21:57;;;;;;;46.53;25.80;;;7.00;99.90;;;;;;4824155;29;20224;-63
2022/11/26 12:24:40;;;;;;;50.03;25.20;;;7.00;99.90;;;;;;4822041;29;20240;-60
2022/11/26 12:27:16;;;;;;;51.57;25.87;;;7.00;99.90;;;;;;4822989;29;20667;-63
2022/11/26 12:29:51;;;;;;;46.07;24.73;;;7.00;99.90;;;;;;4823400;29;21472;-63
2022/11/26 12:32:27;;;;;;;49.37;25.63;;;7.10;99.90;;;;;;4821855;29;20662;-60
2022/11/26 12:34:59;;;;;;;56.03;29.00;;;7.10;99.90;;;;;;4823722;29;20230;-62
2022/11/26 12:37:32;;;;;;;46.10;25.43;;;7.10;99.90;;;;;;4825554;29;20232;-62
2022/11/26 12:40:04;;;;;;;50.67;26.90;;;7.10;99.90;;;;;;4824364;29;20254;-63
2022/11/26 12:42:40;;;;;;;49.70;27.17;;;7.20;99.90;;;;;;4821259;29;20236;-62
2022/11/26 12:45:18;;;;;;;46.73;26.23;;;7.10;99.90;;;;;;4823186;29;20231;-63
2022/11/26 12:47:53;;;;;;;48.83;27.17;;;7.10;99.90;;;;;;4821627;29;20251;-63
2022/11/26 12:50:29;;;;;;;52.87;27.63;;;7.10;99.90;;;;;;4822958;29;20587;-63
2022/11/26 12:53:14;;;;;;;54.17;27.60;;;7.10;99.90;;;;;;4823716;29;20773;-59
2022/11/26 12:55:50;;;;;;;45.97;24.57;;;7.10;99.90;;;;;;4823204;29;20480;-63
2022/11/26 12:58:23;;;;;;;51.63;27.23;;;7.10;99.90;;;;;;4823383;29;20640;-63
2022/11/26 13:00:53;;;;;;;48.53;25.97;;;7.10;99.90;;;;;;4822867;29;20247;-63